Time;durP1;ratioP1;P1;durP2;ratioP2;P2;SDS_P1;SDS_P2;PMS_P1;PMS_P2;Temp;Humidity;BMP_temperature;BMP_pressure;BME280_temperature;BME280_humidity;BME280_pressure;Samples;Min_cycle;Max_cycle;Signal;HPM_P1;HPM_P2
2021/12/31 00:00:05;;;;;;;7.72;2.35;;;;;;;21.65;48.96;99868.81;4420867;32;20461;-70
2021/12/31 00:02:31;;;;;;;7.03;1.90;;;;;;;21.94;48.33;99849.25;4419589;32;20078;-70
2021/12/31 00:04:58;;;;;;;7.05;2.00;;;;;;;21.24;49.53;99833.81;4417992;32;20064;-70
2021/12/31 00:07:24;;;;;;;10.02;2.28;;;;;;;21.18;49.93;99835.16;4418048;32;20475;-70
2021/12/31 00:09:50;;;;;;;9.73;2.05;;;;;;;21.32;49.83;99833.97;4412497;32;20368;-70
2021/12/31 00:12:16;;;;;;;5.03;1.98;;;;;;;21.16;49.96;99809.16;4419233;32;20051;-70
2021/12/31 00:14:42;;;;;;;8.48;2.20;;;;;;;21.03;50.31;99832.69;4419665;32;20088;-70
2021/12/31 00:17:07;;;;;;;10.02;1.83;;;;;;;20.93;50.51;99833.53;4416895;32;20078;-70
2021/12/31 00:19:39;;;;;;;6.22;1.85;;;;;;;21.15;49.89;99827.66;4415465;32;20442;-70
2021/12/31 00:22:30;;;;;;;12.00;2.12;;;;;;;21.52;48.87;99840.06;4421966;32;20498;-70
2021/12/31 00:24:50;;;;;;;;;;;;;;;21.17;49.57;99885.88;4417184;32;20142;-70
2021/12/31 00:27:19;;;;;;;12.52;2.65;;;;;;;21.52;48.80;99860.09;4419013;32;19957;-70
2021/12/31 00:29:44;;;;;;;6.20;1.60;;;;;;;21.27;49.34;99857.72;4417408;32;20082;-70
2021/12/31 00:32:10;;;;;;;8.90;1.67;;;;;;;21.67;48.37;99825.31;4423428;32;20065;-70
2021/12/31 00:34:36;;;;;;;8.65;2.50;;;;;;;21.35;49.00;99827.19;4418879;32;20090;-70
2021/12/31 00:37:02;;;;;;;7.65;1.42;;;;;;;21.03;49.71;99829.03;4419721;32;20183;-70
2021/12/31 00:39:28;;;;;;;8.30;1.70;;;;;;;21.01;49.84;99815.28;4417734;32;20090;-70
2021/12/31 00:41:54;;;;;;;9.30;2.12;;;;;;;20.84;50.07;99853.88;4418631;32;20053;-70
2021/12/31 00:44:20;;;;;;;11.07;1.90;;;;;;;20.72;50.52;99847.44;4421314;32;20053;-70
2021/12/31 00:46:47;;;;;;;6.43;2.00;;;;;;;21.31;49.07;99838.94;4419130;32;20102;-70
2021/12/31 00:49:14;;;;;;;8.80;1.73;;;;;;;20.97;49.90;99837.69;4418205;32;20380;-70
2021/12/31 00:51:40;;;;;;;12.07;2.10;;;;;;;21.16;49.51;99829.19;4421085;32;20081;-70
2021/12/31 00:54:06;;;;;;;7.87;1.80;;;;;;;20.80;50.50;99844.81;4421179;32;20102;-70
2021/12/31 00:56:32;;;;;;;8.95;1.95;;;;;;;20.69;50.76;99839.16;4417009;32;20077;-70
2021/12/31 00:58:57;;;;;;;11.32;2.00;;;;;;;20.73;50.53;99837.56;4418113;32;20465;-70
2021/12/31 01:01:25;;;;;;;15.75;2.40;;;;;;;20.67;50.83;99841.75;4415101;32;20083;-70
2021/12/31 01:03:51;;;;;;;9.63;2.00;;;;;;;20.64;50.97;99826.44;4419142;32;20069;-69
2021/12/31 01:06:17;;;;;;;9.55;2.00;;;;;;;20.46;51.21;99809.91;4419630;32;20455;-69
2021/12/31 01:08:43;;;;;;;10.55;2.25;;;;;;;20.81;50.29;99803.44;4419517;32;20139;-69
2021/12/31 01:11:09;;;;;;;14.10;2.45;;;;;;;20.52;50.90;99815.63;4417055;32;20417;-70
2021/12/31 01:13:48;;;;;;;7.22;1.90;;;;;;;20.87;50.20;99839.28;4421200;32;20427;-72
2021/12/31 01:16:16;;;;;;;9.10;2.25;;;;;;;20.93;49.90;99817.13;4420198;32;20544;-70
2021/12/31 01:21:27;;;;;;;;;;;;;;;20.53;50.95;99823.66;4418062;32;20493;-69
2021/12/31 01:23:53;;;;;;;11.60;2.83;;;;;;;21.03;49.82;99820.47;4420637;32;19956;-69
2021/12/31 01:26:19;;;;;;;8.65;1.85;;;;;;;20.59;50.72;99821.53;4418488;32;20209;-69
2021/12/31 01:28:45;;;;;;;12.43;2.47;;;;;;;20.53;50.83;99795.09;4416391;32;20163;-72
2021/12/31 01:31:12;;;;;;;9.95;2.42;;;;;;;20.51;51.01;99800.53;4415263;32;20038;-70
2021/12/31 01:33:38;;;;;;;10.27;2.15;;;;;;;20.94;50.16;99792.97;4417708;32;20037;-72
2021/12/31 01:36:06;;;;;;;11.70;2.22;;;;;;;20.31;51.46;99814.44;4421290;32;20064;-72
2021/12/31 01:38:34;;;;;;;12.10;1.83;;;;;;;20.48;51.04;99810.19;4418003;32;20085;-71
2021/12/31 01:41:00;;;;;;;14.48;2.12;;;;;;;20.52;51.05;99813.53;4417938;32;20037;-71
2021/12/31 01:43:27;;;;;;;11.27;2.70;;;;;;;20.62;50.86;99796.84;4422112;32;20049;-72
2021/12/31 01:45:55;;;;;;;10.32;2.35;;;;;;;20.62;50.79;99817.59;4421162;32;20312;-71
2021/12/31 01:50:58;;;;;;;12.10;1.92;;;;;;;20.63;50.83;99801.25;3978895;32;15102936;-71
2021/12/31 01:53:26;;;;;;;10.55;2.30;;;;;;;20.62;51.04;99806.16;4428633;32;20112;-71
2021/12/31 01:55:56;;;;;;;11.40;2.60;;;;;;;20.67;50.88;99793.16;4429053;32;20091;-70
2021/12/31 01:58:24;;;;;;;11.93;2.90;;;;;;;20.83;50.71;99815.91;4435365;32;20110;-70
2021/12/31 02:00:50;;;;;;;12.30;2.40;;;;;;;20.91;50.42;99816.09;4433309;32;20071;-70
2021/12/31 02:03:18;;;;;;;14.25;2.28;;;;;;;20.65;51.12;99807.97;4432976;32;20328;-70
2021/12/31 02:05:44;;;;;;;15.55;2.53;;;;;;;20.92;50.49;99804.13;4437214;32;20553;-70
2021/12/31 02:08:11;;;;;;;13.05;2.55;;;;;;;20.64;51.04;99811.34;4433091;32;20037;-70
2021/12/31 02:10:38;;;;;;;8.75;2.28;;;;;;;20.89;50.37;99819.50;4432975;32;20034;-70
2021/12/31 02:13:04;;;;;;;12.10;2.67;;;;;;;21.04;50.02;99827.72;4434778;32;20336;-70
2021/12/31 02:15:31;;;;;;;9.48;2.30;;;;;;;21.03;50.19;99821.25;4431043;32;20112;-70
2021/12/31 02:17:59;;;;;;;13.88;2.60;;;;;;;21.09;49.87;99818.34;4432960;32;20092;-70
2021/12/31 02:20:45;;;;;;;15.48;2.78;;;;;;;20.99;49.92;99832.19;4435418;32;20394;-70
2021/12/31 02:23:20;;;;;;;12.68;2.47;;;;;;;21.23;49.47;99828.63;4435837;32;20362;-70
2021/12/31 02:25:45;;;;;;;15.10;2.72;;;;;;;21.43;49.40;99837.53;4434009;32;20085;-70
2021/12/31 02:28:12;;;;;;;11.80;2.35;;;;;;;21.41;49.14;99836.50;4432158;32;20029;-70
2021/12/31 02:30:38;;;;;;;16.87;2.50;;;;;;;21.39;49.49;99825.59;4433391;32;20037;-70
2021/12/31 02:33:04;;;;;;;13.32;2.97;;;;;;;21.34;49.42;99826.44;4432806;32;20072;-70
2021/12/31 02:35:32;;;;;;;13.43;2.92;;;;;;;21.73;48.51;99825.25;4432375;32;20051;-70
2021/12/31 02:37:57;;;;;;;16.12;3.25;;;;;;;21.19;49.81;99828.91;4433737;32;20086;-70
2021/12/31 02:40:24;;;;;;;14.48;2.37;;;;;;;21.27;49.70;99829.09;4435062;32;20042;-70
2021/12/31 02:42:50;;;;;;;13.62;2.75;;;;;;;21.18;49.85;99823.72;4435169;32;20080;-70
2021/12/31 02:45:16;;;;;;;15.10;2.85;;;;;;;21.43;49.20;99840.41;4434771;32;20029;-70
2021/12/31 02:47:44;;;;;;;12.93;2.05;;;;;;;21.53;48.99;99833.00;4433873;32;20033;-70
2021/12/31 02:50:15;;;;;;;11.77;2.60;;;;;;;21.68;48.81;99841.97;4428870;32;20111;-70
2021/12/31 02:52:42;;;;;;;12.60;2.33;;;;;;;21.66;48.69;99832.34;4436455;32;20078;-70
2021/12/31 02:55:09;;;;;;;13.00;3.10;;;;;;;21.69;48.78;99828.41;4434386;32;20105;-70
2021/12/31 02:57:39;;;;;;;17.45;3.03;;;;;;;21.83;48.65;99823.59;4429742;32;20060;-70
2021/12/31 03:00:06;;;;;;;16.60;3.28;;;;;;;21.67;49.05;99831.03;4431025;32;20042;-70
2021/12/31 03:02:36;;;;;;;14.13;2.62;;;;;;;21.55;49.30;99836.13;4423748;32;20476;-70
2021/12/31 03:05:03;;;;;;;19.55;2.50;;;;;;;21.67;49.17;99840.37;4423472;32;20161;-70
2021/12/31 03:07:30;;;;;;;13.57;3.12;;;;;;;21.10;50.81;99846.41;4425752;32;20433;-70
2021/12/31 03:09:58;;;;;;;22.75;3.12;;;;;;;21.22;51.44;99856.44;4418226;32;20681;-70
2021/12/31 03:12:24;;;;;;;16.48;3.28;;;;;;;21.45;51.44;99842.72;4424197;32;20069;-70
2021/12/31 03:14:50;;;;;;;14.55;3.45;;;;;;;21.26;51.74;99847.59;4421423;32;20103;-71
2021/12/31 03:17:18;;;;;;;12.50;3.00;;;;;;;21.31;52.03;99841.03;4423711;32;20813;-70
2021/12/31 03:19:44;;;;;;;13.95;3.05;;;;;;;21.04;52.64;99857.13;4420955;32;20230;-71
2021/12/31 03:22:10;;;;;;;18.35;3.22;;;;;;;21.13;52.40;99848.22;4425245;32;20041;-70
2021/12/31 03:24:36;;;;;;;17.33;3.42;;;;;;;21.12;52.20;99851.59;4424377;32;20391;-70
2021/12/31 03:27:02;;;;;;;10.88;2.83;;;;;;;20.84;52.88;99862.44;4420610;32;20042;-70
2021/12/31 03:29:28;;;;;;;16.08;3.17;;;;;;;20.93;52.85;99862.88;4423859;32;20434;-71
2021/12/31 03:31:53;;;;;;;15.18;3.10;;;;;;;20.98;52.67;99856.37;4423286;32;20033;-70
2021/12/31 03:34:20;;;;;;;11.60;3.20;;;;;;;20.85;53.02;99841.91;4425556;32;20096;-70
2021/12/31 03:36:46;;;;;;;14.27;2.95;;;;;;;20.84;53.21;99856.72;4423621;32;20106;-70
2021/12/31 03:39:12;;;;;;;8.40;2.35;;;;;;;20.80;53.92;99859.09;4422041;32;20092;-70
2021/12/31 03:41:38;;;;;;;14.70;3.30;;;;;;;20.91;53.87;99850.44;4422711;32;20030;-72
2021/12/31 03:44:05;;;;;;;9.73;2.20;;;;;;;21.00;53.98;99839.47;4424051;32;20052;-70
2021/12/31 03:46:31;;;;;;;11.60;2.53;;;;;;;20.64;55.08;99840.72;4423860;32;20076;-70
2021/12/31 03:48:57;;;;;;;15.10;2.87;;;;;;;20.51;55.14;99837.69;4422090;32;20980;-70
2021/12/31 03:51:23;;;;;;;9.23;2.40;;;;;;;20.59;55.30;99841.53;4424813;32;20126;-70
2021/12/31 03:53:49;;;;;;;13.48;2.90;;;;;;;20.73;54.83;99834.69;4421093;32;20524;-70
2021/12/31 03:56:15;;;;;;;10.75;2.30;;;;;;;20.68;54.76;99846.94;4424492;32;20064;-70
2021/12/31 03:58:41;;;;;;;12.05;1.92;;;;;;;21.06;53.74;99840.22;4421714;32;20414;-70
2021/12/31 04:01:06;;;;;;;11.05;2.58;;;;;;;20.64;54.68;99829.28;4422677;32;20082;-70
2021/12/31 04:03:32;;;;;;;16.92;2.50;;;;;;;20.79;54.18;99829.72;4422123;32;20190;-70
2021/12/31 04:05:58;;;;;;;12.73;2.50;;;;;;;20.94;53.53;99835.88;4425566;32;20069;-70
2021/12/31 04:08:24;;;;;;;17.08;3.08;;;;;;;20.98;53.57;99824.13;4419181;32;20064;-70
2021/12/31 04:10:49;;;;;;;13.38;2.55;;;;;;;20.80;53.71;99819.81;4424112;32;20101;-70
2021/12/31 04:13:15;;;;;;;10.40;3.22;;;;;;;21.10;53.15;99802.72;4423344;32;20025;-72
2021/12/31 04:15:41;;;;;;;11.02;2.87;;;;;;;20.99;53.01;99812.16;4420652;32;20431;-70
2021/12/31 04:18:07;;;;;;;7.07;2.72;;;;;;;20.91;53.34;99807.53;4419558;32;20030;-70
2021/12/31 04:20:37;;;;;;;9.68;2.45;;;;;;;21.09;53.10;99798.31;4420420;32;20089;-70
2021/12/31 04:23:08;;;;;;;10.50;2.00;;;;;;;21.13;52.78;99801.63;4425064;32;20087;-70
2021/12/31 04:25:33;;;;;;;6.87;2.25;;;;;;;21.24;52.64;99790.88;4421395;32;20102;-70
2021/12/31 04:27:59;;;;;;;7.60;2.00;;;;;;;20.87;53.43;99801.31;4418894;32;20454;-70
2021/12/31 04:30:25;;;;;;;8.75;2.60;;;;;;;20.84;53.52;99802.37;4421671;32;20034;-70
2021/12/31 04:32:51;;;;;;;8.70;2.00;;;;;;;21.06;53.22;99802.22;4422740;32;20064;-70
2021/12/31 04:35:18;;;;;;;7.20;1.92;;;;;;;20.86;53.63;99803.41;4423174;32;20068;-70
2021/12/31 04:37:44;;;;;;;6.35;1.95;;;;;;;20.98;53.45;99799.19;4423363;32;20401;-70
2021/12/31 04:40:13;;;;;;;7.62;2.17;;;;;;;20.84;54.12;99808.91;4416357;32;20030;-70
2021/12/31 04:42:41;;;;;;;4.75;1.83;;;;;;;21.26;53.00;99793.97;4422583;32;20073;-70
2021/12/31 04:45:09;;;;;;;12.65;2.50;;;;;;;20.72;54.01;99770.25;4420780;32;20041;-70
2021/12/31 04:47:35;;;;;;;4.12;1.40;;;;;;;21.06;53.36;99793.66;4421193;32;20438;-70
2021/12/31 04:50:02;;;;;;;5.60;1.62;;;;;;;20.92;53.53;99794.78;4424126;32;20571;-70
2021/12/31 04:52:28;;;;;;;4.68;1.35;;;;;;;21.10;52.87;99786.34;4424194;32;20080;-70
2021/12/31 04:54:53;;;;;;;5.22;1.45;;;;;;;20.79;53.60;99763.16;4423020;32;20102;-70
2021/12/31 04:57:23;;;;;;;5.43;1.80;;;;;;;20.60;54.08;99779.44;4419556;32;20098;-70
2021/12/31 04:59:49;;;;;;;3.37;1.48;;;;;;;20.67;53.89;99781.72;4422045;32;20114;-70
2021/12/31 05:02:14;;;;;;;7.37;1.50;;;;;;;20.62;54.19;99763.28;4423085;32;20430;-70
2021/12/31 05:04:40;;;;;;;7.00;1.52;;;;;;;20.83;53.66;99769.38;4423072;32;20079;-71
2021/12/31 05:07:06;;;;;;;5.22;1.40;;;;;;;20.81;53.62;99763.41;4420388;32;20149;-70
2021/12/31 05:09:32;;;;;;;7.53;1.58;;;;;;;20.89;53.46;99768.00;4417129;32;20073;-70
2021/12/31 05:11:57;;;;;;;5.12;1.58;;;;;;;21.28;52.53;99784.84;4419368;32;20077;-70
2021/12/31 05:14:23;;;;;;;5.25;1.60;;;;;;;21.18;52.52;99786.53;4424083;32;20103;-70
2021/12/31 05:16:49;;;;;;;6.22;1.35;;;;;;;21.46;51.93;99790.66;4422615;32;20069;-70
2021/12/31 05:19:15;;;;;;;5.37;1.40;;;;;;;21.38;51.96;99791.78;4419346;32;20061;-70
2021/12/31 05:21:41;;;;;;;5.93;1.25;;;;;;;21.63;50.97;99779.78;4421056;32;20069;-70
2021/12/31 05:24:07;;;;;;;9.02;1.95;;;;;;;21.63;51.08;99790.50;4422783;32;20046;-70
2021/12/31 05:26:32;;;;;;;6.47;1.20;;;;;;;21.44;51.58;99787.56;4420763;32;20101;-70
2021/12/31 05:28:58;;;;;;;5.32;1.23;;;;;;;21.54;51.39;99793.72;4420333;32;20108;-70
2021/12/31 05:31:23;;;;;;;4.93;1.27;;;;;;;21.49;51.12;99781.00;4422268;32;20032;-70
2021/12/31 05:33:49;;;;;;;5.22;1.20;;;;;;;21.52;51.10;99779.94;4422221;32;20041;-70
2021/12/31 05:36:15;;;;;;;5.95;1.40;;;;;;;21.26;51.43;99788.25;4422789;32;20069;-70
2021/12/31 05:38:41;;;;;;;7.50;1.98;;;;;;;21.32;51.19;99780.37;4420911;32;20073;-70
2021/12/31 05:41:07;;;;;;;9.55;1.75;;;;;;;21.53;50.85;99786.41;4419388;32;20370;-70
2021/12/31 05:43:32;;;;;;;6.32;1.90;;;;;;;21.74;50.05;99772.41;4421975;32;20542;-70
2021/12/31 05:45:58;;;;;;;4.12;1.33;;;;;;;21.83;49.92;99772.03;4423665;32;21101;-70
2021/12/31 05:48:24;;;;;;;5.57;1.52;;;;;;;21.80;49.88;99782.50;4419524;32;20069;-70
2021/12/31 05:50:50;;;;;;;4.15;1.30;;;;;;;21.95;49.60;99796.38;4422783;32;20426;-70
2021/12/31 05:53:16;;;;;;;4.12;1.17;;;;;;;21.58;50.00;99800.69;4421248;32;20116;-70
2021/12/31 05:55:41;;;;;;;5.93;1.27;;;;;;;21.51;50.20;99786.19;4421288;32;20117;-70
2021/12/31 05:58:07;;;;;;;3.45;1.20;;;;;;;21.70;49.88;99789.88;4415389;32;20038;-70
2021/12/31 06:00:32;;;;;;;4.10;1.30;;;;;;;21.83;49.43;99792.88;4419681;32;20095;-70
2021/12/31 06:02:59;;;;;;;5.80;1.35;;;;;;;21.41;50.37;99805.78;4422300;32;20098;-70
2021/12/31 06:05:27;;;;;;;8.02;1.67;;;;;;;21.45;50.58;99808.38;4421636;32;20045;-70
2021/12/31 06:07:55;;;;;;;5.10;1.67;;;;;;;21.53;50.42;99804.38;4421521;32;20034;-70
2021/12/31 06:10:22;;;;;;;8.40;1.70;;;;;;;21.88;49.51;99808.44;4419185;32;20536;-70
2021/12/31 06:12:50;;;;;;;10.07;1.62;;;;;;;21.66;49.81;99810.22;4422161;32;20478;-70
2021/12/31 06:15:18;;;;;;;5.30;1.73;;;;;;;21.71;49.73;99805.75;4420059;32;20034;-70
2021/12/31 06:17:44;;;;;;;6.47;1.40;;;;;;;21.48;50.12;99808.06;4424790;32;20062;-70
2021/12/31 06:20:11;;;;;;;4.87;1.35;;;;;;;21.46;50.09;99818.50;4421805;32;20034;-70
2021/12/31 06:22:36;;;;;;;6.05;1.30;;;;;;;21.58;50.04;99817.87;4421536;32;20458;-70
2021/12/31 06:25:03;;;;;;;5.62;1.50;;;;;;;21.59;49.63;99830.84;4420980;32;20030;-71
2021/12/31 06:27:29;;;;;;;6.03;1.50;;;;;;;21.52;49.80;99839.25;4422785;32;20046;-71
2021/12/31 06:29:55;;;;;;;6.55;1.65;;;;;;;21.89;48.99;99842.28;4417326;32;20061;-70
2021/12/31 06:32:21;;;;;;;5.00;1.48;;;;;;;21.43;49.84;99843.25;4421709;32;20056;-70
2021/12/31 06:34:46;;;;;;;5.53;1.25;;;;;;;21.26;50.14;99845.47;4421357;32;20089;-70
2021/12/31 06:37:12;;;;;;;5.35;1.85;;;;;;;21.57;49.68;99864.97;4425357;32;20201;-70
2021/12/31 06:39:37;;;;;;;5.07;1.30;;;;;;;21.52;49.70;99854.38;4423290;32;20119;-70
2021/12/31 06:42:07;;;;;;;7.53;1.48;;;;;;;21.79;49.23;99863.22;4423723;32;20083;-70
2021/12/31 06:44:34;;;;;;;9.52;1.50;;;;;;;21.79;49.22;99863.22;4425339;32;20085;-70
2021/12/31 06:47:00;;;;;;;4.68;1.37;;;;;;;21.87;48.89;99864.19;4422112;32;20099;-70
2021/12/31 06:49:25;;;;;;;10.18;2.03;;;;;;;21.80;49.26;99850.44;4421410;32;20394;-70
2021/12/31 06:51:51;;;;;;;9.68;2.37;;;;;;;21.66;49.36;99850.31;4421839;32;20478;-70
2021/12/31 06:54:17;;;;;;;7.45;1.58;;;;;;;21.76;49.38;99849.97;4423042;32;20021;-70
2021/12/31 06:56:42;;;;;;;4.90;1.30;;;;;;;21.71;49.55;99851.56;4421787;32;20070;-70
2021/12/31 06:59:11;;;;;;;6.68;1.50;;;;;;;22.08;48.65;99839.44;4424215;32;20090;-70
2021/12/31 07:01:36;;;;;;;7.43;1.60;;;;;;;21.50;50.26;99856.97;4424313;32;20496;-70
2021/12/31 07:04:02;;;;;;;7.10;2.05;;;;;;;21.58;49.95;99860.03;4425005;32;20042;-70
2021/12/31 07:06:28;;;;;;;6.78;1.50;;;;;;;21.71;49.66;99851.56;4421212;32;20073;-70
2021/12/31 07:08:53;;;;;;;7.82;1.55;;;;;;;21.73;49.67;99856.75;4422922;32;20045;-70
2021/12/31 07:11:22;;;;;;;7.90;1.48;;;;;;;21.83;49.31;99861.63;4423365;32;20099;-70
2021/12/31 07:13:48;;;;;;;8.10;1.45;;;;;;;21.53;50.04;99857.97;4420665;32;20105;-70
2021/12/31 07:16:14;;;;;;;11.23;1.90;;;;;;;22.00;49.23;99856.47;4423178;32;20085;-70
2021/12/31 07:18:40;;;;;;;10.45;2.97;;;;;;;21.79;49.37;99866.88;4423756;32;20569;-70
2021/12/31 07:21:06;;;;;;;5.93;1.45;;;;;;;21.35;50.56;99872.97;4422000;32;20033;-70
2021/12/31 07:23:31;;;;;;;7.30;1.70;;;;;;;21.84;49.41;99866.03;4426066;32;20072;-70
2021/12/31 07:25:57;;;;;;;4.95;1.15;;;;;;;21.82;49.35;99862.16;4422173;32;20073;-70
2021/12/31 07:28:23;;;;;;;5.70;1.40;;;;;;;21.69;49.36;99863.53;4420657;32;20130;-70
2021/12/31 07:30:50;;;;;;;7.10;2.00;;;;;;;21.35;50.52;99876.63;4422716;32;20037;-70
2021/12/31 07:33:19;;;;;;;8.52;1.70;;;;;;;21.73;49.80;99873.94;4425064;32;20046;-70
2021/12/31 07:35:45;;;;;;;9.82;1.50;;;;;;;21.86;49.49;99874.88;4424823;32;20441;-70
2021/12/31 07:38:19;;;;;;;3.92;1.30;;;;;;;21.98;49.14;99875.50;4424112;32;20060;-71
2021/12/31 07:40:46;;;;;;;7.25;1.52;;;;;;;21.56;49.93;99866.28;4423140;32;20026;-70
2021/12/31 07:43:12;;;;;;;6.25;1.35;;;;;;;21.84;49.31;99876.72;4425712;32;20045;-70
2021/12/31 07:45:39;;;;;;;7.28;1.40;;;;;;;21.82;49.11;99874.41;4424089;32;20362;-70
2021/12/31 07:48:05;;;;;;;7.20;1.70;;;;;;;21.81;49.27;99880.66;4420236;32;20069;-70
2021/12/31 07:50:32;;;;;;;7.93;1.50;;;;;;;21.40;49.98;99878.69;4420014;32;20329;-70
2021/12/31 07:52:58;;;;;;;6.10;1.50;;;;;;;21.99;48.86;99877.06;4422625;32;20402;-70
2021/12/31 07:55:24;;;;;;;4.53;1.65;;;;;;;21.64;49.59;99878.69;4424738;32;20126;-70
2021/12/31 07:57:49;;;;;;;7.70;1.70;;;;;;;21.63;49.66;99891.47;4421811;32;20029;-70
2021/12/31 08:00:15;;;;;;;6.20;1.58;;;;;;;21.54;49.93;99886.06;4422091;32;20100;-70
2021/12/31 08:02:41;;;;;;;9.00;1.85;;;;;;;21.42;50.14;99896.06;4422120;32;20030;-70
2021/12/31 08:05:08;;;;;;;8.57;1.70;;;;;;;21.39;49.98;99873.50;4422455;32;20392;-71
2021/12/31 08:07:33;;;;;;;4.68;1.60;;;;;;;21.45;50.34;99888.53;4422026;32;20076;-71
2021/12/31 08:09:59;;;;;;;7.55;1.60;;;;;;;21.18;50.78;99896.03;4422911;32;20431;-71
2021/12/31 08:12:25;;;;;;;5.22;1.67;;;;;;;21.33;50.35;99901.37;4420018;32;20757;-71
2021/12/31 08:14:51;;;;;;;9.75;1.75;;;;;;;21.38;50.14;99904.19;4423616;32;20087;-71
2021/12/31 08:17:17;;;;;;;5.43;1.42;;;;;;;21.82;49.11;99917.34;4421194;32;20223;-71
2021/12/31 08:19:43;;;;;;;7.50;2.17;;;;;;;21.77;49.39;99911.66;4421306;32;20078;-71
2021/12/31 08:22:09;;;;;;;5.30;1.50;;;;;;;21.50;50.08;99919.97;4422003;32;20132;-71
2021/12/31 08:24:34;;;;;;;5.55;1.45;;;;;;;21.94;49.15;99918.81;4425714;32;20494;-71
2021/12/31 08:27:01;;;;;;;8.25;2.28;;;;;;;21.36;50.22;99926.06;4420994;32;20073;-71
2021/12/31 08:29:26;;;;;;;8.40;1.33;;;;;;;21.70;49.65;99930.19;4420054;32;20050;-71
2021/12/31 08:31:52;;;;;;;6.07;1.52;;;;;;;21.73;49.63;99949.19;4421141;32;20026;-71
2021/12/31 08:34:18;;;;;;;5.10;1.40;;;;;;;21.69;49.66;99946.59;4424087;32;20169;-71
2021/12/31 08:36:44;;;;;;;6.68;1.50;;;;;;;21.61;50.05;99964.91;4425478;32;20072;-71
2021/12/31 08:39:10;;;;;;;8.10;1.73;;;;;;;21.73;49.94;99957.78;4420561;32;20091;-71
2021/12/31 08:41:38;;;;;;;4.53;0.95;;;;;;;21.23;51.19;99951.66;4421540;32;20038;-72
2021/12/31 08:44:06;;;;;;;5.25;1.25;;;;;;;21.92;49.68;99949.28;4421257;32;20065;-71
2021/12/31 08:46:33;;;;;;;3.92;0.90;;;;;;;21.57;50.55;99942.28;4421627;32;20755;-71
2021/12/31 08:48:59;;;;;;;6.05;1.10;;;;;;;21.58;50.58;99945.91;4422348;32;20074;-71
2021/12/31 08:51:25;;;;;;;3.55;0.90;;;;;;;21.47;50.69;99943.13;4420533;32;20034;-71
2021/12/31 08:53:52;;;;;;;1.85;0.70;;;;;;;21.60;50.61;99934.72;4423044;32;20062;-71
2021/12/31 08:56:18;;;;;;;6.40;0.90;;;;;;;21.40;50.82;99949.44;4423505;32;20144;-71
2021/12/31 08:58:45;;;;;;;2.05;0.65;;;;;;;21.51;50.59;99957.97;4419308;32;20070;-71
2021/12/31 09:01:11;;;;;;;3.37;0.77;;;;;;;21.59;50.43;99945.38;4420191;32;20326;-71
2021/12/31 09:03:36;;;;;;;4.47;0.60;;;;;;;21.41;50.81;99948.13;4421591;32;20038;-71
2021/12/31 09:06:02;;;;;;;4.28;0.82;;;;;;;21.59;50.35;99948.25;4424127;32;20068;-71
2021/12/31 09:08:28;;;;;;;5.22;1.40;;;;;;;21.56;50.44;99962.84;4422144;32;20089;-71
2021/12/31 09:10:54;;;;;;;3.03;1.00;;;;;;;21.67;50.19;99963.53;4418712;32;20113;-71
2021/12/31 09:13:20;;;;;;;3.00;0.82;;;;;;;21.67;50.24;99985.69;4423556;32;20078;-71
2021/12/31 09:15:47;;;;;;;2.33;0.77;;;;;;;21.72;50.00;99998.41;4421282;32;20081;-71
2021/12/31 09:18:13;;;;;;;1.52;0.50;;;;;;;21.88;49.84;100000.37;4419865;32;20074;-71
2021/12/31 09:20:40;;;;;;;2.15;0.60;;;;;;;22.32;48.71;99999.91;4422448;32;20415;-71
2021/12/31 09:23:06;;;;;;;2.05;0.40;;;;;;;22.50;48.14;100002.09;4422860;32;20543;-72
2021/12/31 09:25:32;;;;;;;2.50;0.62;;;;;;;22.68;47.51;100015.72;4421716;32;20347;-71
2021/12/31 09:27:57;;;;;;;1.75;0.30;;;;;;;22.83;47.24;100022.53;4421100;32;20038;-71
2021/12/31 09:30:23;;;;;;;0.35;0.30;;;;;;;22.78;47.40;100029.16;4420114;32;20081;-71
2021/12/31 09:32:49;;;;;;;1.45;0.40;;;;;;;22.69;47.63;100017.25;4419485;32;20438;-71
2021/12/31 09:35:15;;;;;;;1.65;0.52;;;;;;;22.67;47.50;100034.25;4424067;32;20401;-71
2021/12/31 09:37:40;;;;;;;3.33;0.40;;;;;;;23.12;46.74;100032.34;4421817;32;20114;-71
2021/12/31 09:40:07;;;;;;;3.62;0.47;;;;;;;22.83;46.95;100042.62;4422515;32;20042;-71
2021/12/31 09:42:34;;;;;;;1.65;0.40;;;;;;;23.03;46.85;100035.59;4424715;32;20068;-71
2021/12/31 09:44:59;;;;;;;1.90;0.60;;;;;;;23.11;46.17;100050.91;4424511;32;20101;-71
2021/12/31 09:47:25;;;;;;;0.30;0.20;;;;;;;22.80;46.86;100043.72;4418229;32;20030;-71
2021/12/31 09:49:51;;;;;;;1.15;0.43;;;;;;;23.03;46.34;100052.81;4420761;32;20224;-71
2021/12/31 09:52:18;;;;;;;2.40;0.50;;;;;;;23.05;45.95;100039.50;4420986;32;20410;-71
2021/12/31 09:54:46;;;;;;;5.93;0.50;;;;;;;23.15;45.72;100034.94;4418479;32;20235;-71
2021/12/31 09:57:14;;;;;;;2.40;0.65;;;;;;;23.16;45.44;100039.34;4419512;32;20065;-71
2021/12/31 09:59:41;;;;;;;4.22;0.70;;;;;;;23.35;45.25;100048.75;4417549;32;20392;-71
2021/12/31 10:02:09;;;;;;;4.82;0.90;;;;;;;23.25;45.45;100056.22;4422566;32;20523;-71
2021/12/31 10:04:56;;;;;;;4.18;1.00;;;;;;;23.37;45.21;100068.31;4423452;32;20103;-71
2021/12/31 10:07:24;;;;;;;3.83;0.75;;;;;;;23.76;44.40;100062.00;4418238;32;20083;-71
2021/12/31 10:10:12;;;;;;;9.60;1.20;;;;;;;23.13;45.41;100062.59;4421159;32;20154;-71
2021/12/31 10:12:56;;;;;;;6.35;1.10;;;;;;;23.62;44.61;100069.78;4426938;32;20056;-71
2021/12/31 10:15:24;;;;;;;6.15;0.95;;;;;;;23.32;45.01;100084.28;4420658;32;20073;-71
2021/12/31 10:17:51;;;;;;;6.95;1.30;;;;;;;22.86;46.13;100075.97;4424877;32;20037;-71
2021/12/31 10:20:17;;;;;;;6.55;1.30;;;;;;;22.96;45.70;100087.87;4426975;32;20074;-71
2021/12/31 10:22:45;;;;;;;7.12;1.33;;;;;;;22.50;46.80;100076.66;4424538;32;20103;-71
2021/12/31 10:25:21;;;;;;;5.85;1.08;;;;;;;23.38;45.05;100072.75;4424570;32;20029;-71
2021/12/31 10:27:50;;;;;;;6.45;1.30;;;;;;;23.15;45.08;100075.13;4424712;32;20159;-71
2021/12/31 10:30:22;;;;;;;8.55;1.60;;;;;;;23.18;45.23;100051.06;4423157;32;20554;-71
2021/12/31 10:32:49;;;;;;;9.73;1.45;;;;;;;23.36;44.99;100075.38;4420216;32;20030;-71
2021/12/31 10:35:19;;;;;;;9.95;1.60;;;;;;;22.92;45.58;100093.16;4422239;32;20128;-71
2021/12/31 10:37:53;;;;;;;4.03;1.25;;;;;;;23.40;44.83;100096.72;4425042;32;20077;-71
2021/12/31 10:40:36;;;;;;;8.07;1.10;;;;;;;23.21;45.03;100110.25;4425191;32;20026;-71
2021/12/31 10:46:07;;;;;;;8.70;1.27;;;;;;;23.17;44.71;100088.91;3980985;32;15023421;-71
2021/12/31 10:48:50;;;;;;;8.23;1.70;;;;;;;23.47;44.23;100087.47;4430401;32;20049;-71
2021/12/31 10:51:17;;;;;;;10.23;1.48;;;;;;;23.84;43.37;100103.91;4433014;32;20038;-71
2021/12/31 10:53:50;;;;;;;11.05;1.55;;;;;;;22.91;44.95;100100.97;4430556;32;20056;-72
2021/12/31 10:56:17;;;;;;;11.38;1.62;;;;;;;22.61;45.69;100114.59;4432056;32;20098;-71
2021/12/31 10:58:45;;;;;;;11.90;1.90;;;;;;;22.50;46.02;100106.13;4433778;32;20034;-72
2021/12/31 11:01:14;;;;;;;8.93;1.62;;;;;;;22.66;45.56;100127.31;4430980;32;20348;-71
2021/12/31 11:03:41;;;;;;;10.23;1.70;;;;;;;23.00;45.08;100120.69;4429138;32;20092;-71
2021/12/31 11:06:09;;;;;;;12.07;1.80;;;;;;;22.79;45.21;100153.25;4431906;32;20465;-71
2021/12/31 11:08:35;;;;;;;9.10;1.87;;;;;;;22.78;45.20;100143.91;4428951;32;20081;-71
2021/12/31 11:11:04;;;;;;;11.32;1.80;;;;;;;23.18;44.35;100139.28;4429129;32;20034;-71
2021/12/31 11:13:30;;;;;;;12.98;1.87;;;;;;;23.60;43.70;100149.19;4433266;32;20042;-71
2021/12/31 11:15:58;;;;;;;10.73;2.03;;;;;;;23.10;44.41;100167.03;4430459;32;20029;-71
2021/12/31 11:18:25;;;;;;;14.23;2.40;;;;;;;23.36;44.04;100170.13;4429446;32;20080;-71
2021/12/31 11:20:53;;;;;;;14.20;1.87;;;;;;;23.39;43.82;100177.69;4432690;32;20072;-71
2021/12/31 11:23:27;;;;;;;14.70;2.67;;;;;;;23.11;44.34;100194.41;4430728;32;20103;-71
2021/12/31 11:25:56;;;;;;;14.25;2.30;;;;;;;23.53;43.35;100182.97;4431417;32;20431;-71
2021/12/31 11:28:24;;;;;;;11.55;2.20;;;;;;;23.45;43.42;100184.91;4427539;32;20053;-71
2021/12/31 11:30:50;;;;;;;12.07;1.77;;;;;;;23.56;43.33;100189.72;4431418;32;20447;-71
2021/12/31 11:33:18;;;;;;;11.15;1.95;;;;;;;23.47;43.25;100202.38;4427989;32;20392;-71
2021/12/31 11:35:58;;;;;;;9.23;1.87;;;;;;;22.93;43.91;100207.38;4431139;32;20037;-71